Time;durP1;ratioP1;P1;durP2;ratioP2;P2;SDS_P1;SDS_P2;PMS_P1;PMS_P2;Temp;Humidity;BMP_temperature;BMP_pressure;BME280_temperature;BME280_humidity;BME280_pressure;Samples;Min_cycle;Max_cycle;Signal;HPM_P1;HPM_P2
2024/01/16 18:12:56;;;;;;;7.63;3.20;;;;;;;19.20;38.96;100520.72;5068108;27;20413;-40
2024/01/16 18:15:21;;;;;;;10.40;3.15;;;;;;;19.20;39.06;100518.81;5056967;28;20063;-38
2024/01/16 18:17:49;;;;;;;8.43;3.47;;;;;;;19.22;39.19;100510.28;5057321;28;20094;-39
2024/01/16 18:20:20;;;;;;;7.63;3.50;;;;;;;19.25;39.28;100509.69;5056865;28;20055;-40
2024/01/16 18:22:51;;;;;;;6.68;3.30;;;;;;;19.29;39.06;100501.66;5048444;28;20116;-40
2024/01/16 18:25:16;;;;;;;7.28;3.45;;;;;;;19.32;39.09;100507.41;5048235;28;20110;-39
2024/01/16 18:27:45;;;;;;;4.85;3.05;;;;;;;19.36;38.95;100508.47;5047746;28;20025;-39
2024/01/16 18:30:15;;;;;;;5.45;3.15;;;;;;;19.39;38.90;100491.38;5052400;28;20536;-38
2024/01/16 18:32:44;;;;;;;6.95;3.47;;;;;;;19.42;39.21;100487.22;5054552;28;20024;-39
2024/01/16 18:35:13;;;;;;;5.95;3.42;;;;;;;19.43;38.94;100490.78;5057102;28;20421;-39
2024/01/16 18:37:39;;;;;;;5.35;3.08;;;;;;;19.44;38.71;100482.25;5049792;28;20041;-41
2024/01/16 18:40:08;;;;;;;6.32;2.97;;;;;;;19.43;38.92;100477.88;5057013;28;20036;-41
2024/01/16 18:42:37;;;;;;;5.78;3.08;;;;;;;19.44;38.67;100481.44;5056656;28;20013;-40
2024/01/16 18:45:04;;;;;;;5.50;3.22;;;;;;;19.44;38.44;100475.94;5063258;28;20392;-39
2024/01/16 18:47:31;;;;;;;7.20;3.20;;;;;;;19.45;38.56;100477.56;5048090;28;20522;-39
2024/01/16 18:49:57;;;;;;;8.90;3.30;;;;;;;19.43;38.40;100474.31;5055793;28;20682;-38
2024/01/16 18:52:22;;;;;;;5.28;3.45;;;;;;;19.41;38.35;100477.34;5053473;28;20127;-38
2024/01/16 18:54:48;;;;;;;7.40;3.80;;;;;;;19.39;38.27;100474.88;5056280;28;20082;-36
2024/01/16 18:57:13;;;;;;;6.80;4.15;;;;;;;19.37;37.86;100476.28;5046925;28;20101;-39
2024/01/16 18:59:38;;;;;;;7.97;4.22;;;;;;;19.34;38.02;100476.91;5052668;28;20078;-38
2024/01/16 19:02:04;;;;;;;6.88;4.43;;;;;;;19.32;38.07;100477.16;5054647;28;20101;-38
2024/01/16 19:04:32;;;;;;;15.88;4.07;;;;;;;19.35;38.37;100484.00;5055174;28;20024;-39
2024/01/16 19:06:57;;;;;;;12.80;3.97;;;;;;;19.39;38.43;100476.81;5054563;28;20033;-39
2024/01/16 19:09:23;;;;;;;7.18;3.80;;;;;;;19.40;38.53;100476.53;5055736;28;20495;-39
2024/01/16 19:11:54;;;;;;;7.32;3.65;;;;;;;19.40;38.43;100487.53;5056425;28;20045;-39
2024/01/16 19:14:20;;;;;;;4.68;3.80;;;;;;;19.40;38.65;100482.03;5056490;28;20032;-39
2024/01/16 19:16:46;;;;;;;7.35;3.80;;;;;;;19.42;38.58;100475.41;5050617;28;20197;-39
2024/01/16 19:19:14;;;;;;;6.25;3.70;;;;;;;19.40;38.42;100464.72;5054311;28;20073;-39
2024/01/16 19:21:41;;;;;;;8.38;3.75;;;;;;;19.39;38.57;100472.13;5058371;28;20052;-39
2024/01/16 19:24:07;;;;;;;6.72;3.55;;;;;;;19.38;38.49;100462.25;5041272;28;20034;-38
2024/01/16 19:26:33;;;;;;;7.57;3.55;;;;;;;19.36;38.28;100464.50;5043800;28;20028;-38
2024/01/16 19:28:58;;;;;;;8.98;3.85;;;;;;;19.33;38.41;100461.53;5034091;28;20036;-38
2024/01/16 19:31:24;;;;;;;6.10;3.78;;;;;;;19.31;38.27;100461.81;5038977;28;20051;-38
2024/01/16 19:33:49;;;;;;;4.40;3.47;;;;;;;19.27;38.55;100451.72;5043376;28;20033;-38
2024/01/16 19:36:15;;;;;;;8.07;4.20;;;;;;;19.22;38.44;100447.09;5044409;28;20028;-38
2024/01/16 19:38:40;;;;;;;6.18;3.72;;;;;;;19.19;38.59;100447.66;5043625;28;20021;-38
2024/01/16 19:41:05;;;;;;;8.65;3.90;;;;;;;19.16;38.60;100448.28;5049405;28;20032;-38
2024/01/16 19:43:31;;;;;;;5.55;3.30;;;;;;;19.13;38.58;100441.44;5039798;28;20029;-38
2024/01/16 19:45:57;;;;;;;7.90;3.80;;;;;;;19.11;38.45;100440.91;5043546;28;20393;-38
2024/01/16 19:48:23;;;;;;;7.43;3.75;;;;;;;19.10;38.36;100447.50;5043439;28;20112;-40
2024/01/16 19:50:48;;;;;;;5.18;3.40;;;;;;;19.08;38.32;100425.03;5036064;28;20305;-40
2024/01/16 19:53:16;;;;;;;5.22;3.33;;;;;;;19.07;38.32;100423.38;5042951;28;20102;-40
2024/01/16 19:55:42;;;;;;;5.25;3.22;;;;;;;19.06;38.37;100424.50;5042591;28;20056;-40
2024/01/16 19:58:08;;;;;;;7.05;3.45;;;;;;;19.06;38.46;100416.25;5058388;28;20462;-40
2024/01/16 20:00:34;;;;;;;7.78;3.33;;;;;;;19.05;38.43;100415.41;5047598;28;20025;-39
2024/01/16 20:02:59;;;;;;;6.72;3.45;;;;;;;19.05;38.48;100417.38;5033433;28;20033;-40
2024/01/16 20:05:25;;;;;;;5.68;3.28;;;;;;;19.05;38.43;100423.66;5030381;28;20035;-42
2024/01/16 20:07:50;;;;;;;6.65;3.10;;;;;;;19.05;38.60;100415.41;5035480;28;20036;-38
2024/01/16 20:10:17;;;;;;;5.22;2.95;;;;;;;19.04;38.48;100416.56;5036534;28;20033;-40
2024/01/16 20:12:48;;;;;;;5.20;2.80;;;;;;;19.05;38.50;100409.94;5042501;28;20110;-40
2024/01/16 20:15:15;;;;;;;4.28;3.05;;;;;;;19.04;38.52;100405.56;5042486;28;20340;-40
2024/01/16 20:17:41;;;;;;;4.97;2.90;;;;;;;19.05;38.39;100409.13;5042895;28;20025;-40
2024/01/16 20:20:09;;;;;;;5.78;2.80;;;;;;;19.03;38.56;100405.84;5042241;28;20156;-40
2024/01/16 20:22:35;;;;;;;5.82;2.80;;;;;;;18.99;38.39;100405.63;5042658;28;20063;-40
2024/01/16 20:25:00;;;;;;;5.35;3.03;;;;;;;18.98;38.51;100409.50;5041663;28;20021;-40
2024/01/16 20:27:26;;;;;;;5.47;3.10;;;;;;;18.95;38.54;100407.31;5043708;28;20112;-40
2024/01/16 20:29:52;;;;;;;4.65;2.65;;;;;;;18.93;38.46;100417.78;5032167;28;20028;-40
2024/01/16 20:32:17;;;;;;;5.80;2.80;;;;;;;18.90;38.58;100413.66;5039743;28;20048;-38
2024/01/16 20:34:44;;;;;;;4.60;3.10;;;;;;;18.88;38.62;100424.13;5038964;28;20036;-38
2024/01/16 20:37:13;;;;;;;10.07;2.97;;;;;;;18.86;38.37;100412.63;5038193;28;20033;-38
2024/01/16 20:39:38;;;;;;;5.00;2.95;;;;;;;18.83;38.47;100410.44;5074306;28;20024;-38
2024/01/16 20:42:04;;;;;;;4.70;3.13;;;;;;;18.83;38.68;100407.69;5041703;28;20036;-38
2024/01/16 20:44:32;;;;;;;3.88;2.90;;;;;;;18.82;38.34;100402.50;5043457;28;20082;-38
2024/01/16 20:46:58;;;;;;;3.70;2.80;;;;;;;18.81;38.26;100396.22;5036988;28;20431;-38
2024/01/16 20:49:24;;;;;;;5.85;2.88;;;;;;;18.82;38.64;100405.25;5039608;28;20035;-38
2024/01/16 20:51:49;;;;;;;5.72;3.08;;;;;;;18.82;38.50;100402.50;5045599;28;20033;-38
2024/01/16 20:54:15;;;;;;;4.90;2.80;;;;;;;18.80;38.43;100402.81;5043457;28;20493;-38
2024/01/16 20:56:41;;;;;;;6.22;2.85;;;;;;;18.80;38.47;100397.31;5029291;28;20034;-38
2024/01/16 20:59:11;;;;;;;4.65;2.60;;;;;;;18.80;38.40;100396.47;5042624;28;20024;-38
2024/01/16 21:01:37;;;;;;;4.18;2.80;;;;;;;18.79;38.39;100398.44;5040738;28;20140;-38
2024/01/16 21:04:02;;;;;;;4.78;2.80;;;;;;;18.78;38.41;100396.78;5039092;28;20560;-38
2024/01/16 21:06:28;;;;;;;3.80;2.60;;;;;;;18.75;38.53;100384.47;5042157;28;20082;-38
2024/01/16 21:08:53;;;;;;;4.38;2.47;;;;;;;18.75;38.41;100389.16;5041997;28;20025;-38
2024/01/16 21:11:19;;;;;;;4.07;2.58;;;;;;;18.72;38.31;100378.75;5043118;28;20478;-38
2024/01/16 21:13:45;;;;;;;4.22;2.53;;;;;;;18.69;38.46;100371.09;5042386;28;20114;-38
2024/01/16 21:16:11;;;;;;;4.55;2.60;;;;;;;18.67;38.29;100367.81;5040323;28;20751;-40
2024/01/16 21:18:37;;;;;;;4.07;2.50;;;;;;;18.65;38.26;100361.81;5031235;28;20090;-38
2024/01/16 21:21:05;;;;;;;5.07;2.67;;;;;;;18.64;38.43;100358.25;5037968;28;20353;-39
2024/01/16 21:23:32;;;;;;;6.38;2.70;;;;;;;18.63;38.40;100353.06;5038061;28;20500;-39
2024/01/16 21:25:57;;;;;;;4.18;2.58;;;;;;;18.63;38.32;100350.31;5036963;28;20021;-40
2024/01/16 21:28:23;;;;;;;4.88;2.83;;;;;;;18.63;38.24;100342.09;5035741;28;20114;-39
2024/01/16 21:30:48;;;;;;;3.92;2.22;;;;;;;18.64;38.34;100335.47;5034874;28;20428;-38
2024/01/16 21:33:14;;;;;;;3.53;2.35;;;;;;;18.66;38.38;100333.25;5041142;28;20326;-37
2024/01/16 21:35:41;;;;;;;4.53;2.55;;;;;;;18.67;38.50;100330.22;5040638;28;20115;-39
2024/01/16 21:38:06;;;;;;;5.85;2.50;;;;;;;18.71;38.55;100317.53;5040205;28;20040;-39
2024/01/16 21:40:34;;;;;;;4.85;2.95;;;;;;;18.73;38.41;100307.06;5041121;28;20025;-39
2024/01/16 21:42:59;;;;;;;4.97;2.60;;;;;;;18.75;38.40;100307.59;5041984;28;20032;-39
2024/01/16 21:45:25;;;;;;;4.18;2.50;;;;;;;18.76;38.38;100302.91;5041545;28;20037;-40
2024/01/16 21:47:50;;;;;;;4.72;2.80;;;;;;;18.79;38.60;100302.34;5034469;28;20041;-39
2024/01/16 21:50:16;;;;;;;4.28;2.58;;;;;;;18.82;38.40;100300.94;5040041;28;20059;-39
2024/01/16 21:52:42;;;;;;;5.80;2.70;;;;;;;18.83;38.44;100297.06;5036004;28;20470;-39
2024/01/16 21:55:07;;;;;;;5.38;2.85;;;;;;;18.85;38.60;100297.59;5031512;28;20624;-39
2024/01/16 21:57:33;;;;;;;4.68;2.38;;;;;;;18.85;38.65;100284.69;5042094;28;20021;-40
2024/01/16 21:59:59;;;;;;;5.95;2.90;;;;;;;18.87;38.47;100276.13;5040092;28;20032;-39
2024/01/16 22:02:24;;;;;;;3.53;2.40;;;;;;;18.86;38.54;100269.84;5033634;28;20021;-40
2024/01/16 22:04:50;;;;;;;5.57;3.00;;;;;;;18.87;38.49;100263.25;5019801;28;20034;-40
2024/01/16 22:07:15;;;;;;;3.58;2.38;;;;;;;18.87;38.45;100259.66;5038205;28;20039;-38
2024/01/16 22:09:41;;;;;;;5.93;2.78;;;;;;;18.88;38.69;100261.31;5039318;28;20025;-39
2024/01/16 22:12:08;;;;;;;6.25;2.55;;;;;;;18.86;38.66;100258.88;5037465;28;20125;-40
2024/01/16 22:14:36;;;;;;;4.15;2.60;;;;;;;18.84;38.45;100261.06;5033928;28;20068;-38
2024/01/16 22:17:01;;;;;;;3.83;2.58;;;;;;;18.84;38.48;100254.78;5039661;28;20025;-38
2024/01/16 22:19:27;;;;;;;5.68;3.03;;;;;;;18.82;38.47;100254.25;5030619;28;20033;-40
2024/01/16 22:21:52;;;;;;;6.20;2.90;;;;;;;18.81;38.66;100249.88;5030974;28;20060;-40
2024/01/16 22:24:18;;;;;;;5.05;2.63;;;;;;;18.77;38.71;100245.00;5036046;28;20029;-39
2024/01/16 22:26:43;;;;;;;5.75;3.03;;;;;;;18.77;38.65;100238.66;5035780;28;20029;-40
2024/01/16 22:29:09;;;;;;;3.58;2.65;;;;;;;18.75;38.82;100229.94;5035454;28;20028;-40
2024/01/16 22:31:40;;;;;;;5.30;2.83;;;;;;;18.73;38.74;100223.91;5039396;28;20060;-39
2024/01/16 22:34:07;;;;;;;4.63;2.95;;;;;;;18.71;38.67;100223.38;5038877;28;20624;-39
2024/01/16 22:36:32;;;;;;;5.70;2.55;;;;;;;18.68;38.74;100216.56;5034625;28;20056;-40
2024/01/16 22:38:57;;;;;;;5.30;2.85;;;;;;;18.66;38.62;100212.47;5039848;28;20362;-39
2024/01/16 22:41:23;;;;;;;5.25;2.70;;;;;;;18.63;38.77;100208.41;5042023;28;20382;-39
2024/01/16 22:43:48;;;;;;;3.83;2.60;;;;;;;18.60;38.82;100204.34;5040577;28;20538;-39
2024/01/16 22:46:14;;;;;;;5.70;2.63;;;;;;;18.59;38.76;100194.47;5040714;28;20120;-37
2024/01/16 22:48:40;;;;;;;4.28;2.33;;;;;;;18.57;38.90;100199.41;5039524;28;20022;-39
2024/01/16 22:51:05;;;;;;;6.35;2.80;;;;;;;18.54;38.82;100193.69;5040860;28;20071;-39
2024/01/16 22:53:31;;;;;;;4.22;2.88;;;;;;;18.51;38.99;100197.84;5040769;28;20498;-39
2024/01/16 22:55:56;;;;;;;5.25;3.00;;;;;;;18.49;38.82;100185.53;5040303;28;20029;-39
2024/01/16 22:58:22;;;;;;;4.35;2.58;;;;;;;18.45;38.86;100190.81;5038568;28;20202;-40
2024/01/16 23:00:53;;;;;;;5.40;2.90;;;;;;;18.42;38.95;100177.69;5036024;28;20318;-39
2024/01/16 23:03:19;;;;;;;7.05;2.88;;;;;;;18.39;38.82;100170.03;5032870;28;20048;-39
2024/01/16 23:05:46;;;;;;;5.40;3.00;;;;;;;18.36;39.04;100167.91;5042569;28;20254;-39
2024/01/16 23:08:13;;;;;;;6.03;2.90;;;;;;;18.32;38.86;100164.09;5038141;28;20017;-38
2024/01/16 23:10:38;;;;;;;6.25;3.05;;;;;;;18.29;38.97;100168.25;5041986;28;20033;-37
2024/01/16 23:13:04;;;;;;;7.93;3.15;;;;;;;18.25;39.30;100168.03;5038796;28;20274;-38
2024/01/16 23:15:29;;;;;;;4.63;2.97;;;;;;;18.22;39.13;100165.88;5045261;28;20095;-38
2024/01/16 23:17:55;;;;;;;4.95;3.10;;;;;;;18.20;39.21;100161.81;5041744;28;20163;-38
2024/01/16 23:20:22;;;;;;;6.13;3.20;;;;;;;18.15;39.28;100157.19;5041653;28;20350;-38
2024/01/16 23:22:47;;;;;;;5.55;3.15;;;;;;;18.11;39.26;100142.44;5031412;28;20033;-38
2024/01/16 23:25:13;;;;;;;6.80;3.42;;;;;;;18.08;39.25;100140.28;5030877;28;20136;-39
2024/01/16 23:27:40;;;;;;;5.97;3.45;;;;;;;18.04;39.35;100140.06;5050786;28;20028;-38
2024/01/16 23:30:07;;;;;;;5.13;3.28;;;;;;;18.00;39.42;100147.25;5024666;28;20131;-38
2024/01/16 23:32:33;;;;;;;7.45;3.20;;;;;;;17.98;39.45;100141.25;5041596;28;20029;-37
2024/01/16 23:34:58;;;;;;;7.43;3.90;;;;;;;17.96;39.51;100143.44;5037080;28;20624;-38
2024/01/16 23:37:27;;;;;;;6.15;3.30;;;;;;;17.93;39.57;100155.78;5037648;28;20024;-38
2024/01/16 23:39:53;;;;;;;5.57;3.35;;;;;;;17.92;39.61;100139.63;5067646;28;20028;-39
2024/01/16 23:42:19;;;;;;;6.35;3.58;;;;;;;17.89;39.70;100132.00;5041168;28;20025;-39
2024/01/16 23:44:44;;;;;;;5.75;3.40;;;;;;;17.85;39.63;100136.44;5042899;28;20071;-39
2024/01/16 23:47:10;;;;;;;5.60;3.10;;;;;;;17.84;39.58;100129.31;5042282;28;20033;-39
2024/01/16 23:49:37;;;;;;;4.32;3.28;;;;;;;17.79;39.58;100125.53;5041495;28;20031;-39
2024/01/16 23:52:05;;;;;;;7.85;3.47;;;;;;;17.76;39.67;100126.09;5041239;28;20536;-37
2024/01/16 23:54:31;;;;;;;6.10;3.42;;;;;;;17.75;39.82;100123.66;5040562;28;20036;-38
2024/01/16 23:56:57;;;;;;;5.00;3.42;;;;;;;17.73;40.00;100125.88;5043653;28;20106;-38
2024/01/16 23:59:23;;;;;;;5.22;3.20;;;;;;;17.65;39.98;100114.44;5043257;28;20052;-38
